createdAt,value
2022-09-14T00:00:12.582Z,6.70
2022-09-14T00:02:40.313Z,5.82
2022-09-14T00:05:08.488Z,5.47
2022-09-14T00:07:36.297Z,5.38
2022-09-14T00:10:03.844Z,9.35
2022-09-14T00:12:31.464Z,5.70
2022-09-14T00:14:59.026Z,9.75
2022-09-14T00:17:28.009Z,6.30
2022-09-14T00:19:55.614Z,5.63
2022-09-14T00:22:23.203Z,9.10
2022-09-14T00:24:51.001Z,6.00
2022-09-14T00:27:18.562Z,7.85
2022-09-14T00:29:48.482Z,6.45
2022-09-14T00:32:16.131Z,5.95
2022-09-14T00:34:45.068Z,9.90
2022-09-14T00:37:12.862Z,4.78
2022-09-14T00:39:47.614Z,5.90
2022-09-14T00:42:19.335Z,8.90
2022-09-14T00:45:08.464Z,10.20
2022-09-14T00:47:36.495Z,6.72
2022-09-14T00:50:06.860Z,6.82
2022-09-14T00:52:36.483Z,4.78
2022-09-14T00:55:08.532Z,6.88
2022-09-14T00:57:38.918Z,6.40
2022-09-14T01:00:09.282Z,4.55
2022-09-14T01:02:36.953Z,5.22
2022-09-14T01:05:07.153Z,9.80
2022-09-14T01:07:59.468Z,6.05
2022-09-14T01:10:35.661Z,4.25
2022-09-14T01:13:09.960Z,5.25
2022-09-14T01:15:46.170Z,8.27
2022-09-14T01:18:17.661Z,7.88
2022-09-14T01:20:49.591Z,7.55
2022-09-14T01:23:20.591Z,2.22
2022-09-14T01:26:02.655Z,5.17
2022-09-14T01:28:35.812Z,5.80
2022-09-14T01:31:06.767Z,8.50
2022-09-14T01:33:37.532Z,5.93
2022-09-14T01:36:07.972Z,5.15
2022-09-14T01:38:39.134Z,10.13
2022-09-14T01:41:10.499Z,8.38
2022-09-14T01:43:41.399Z,3.47
2022-09-14T01:46:12.148Z,9.30
2022-09-14T01:48:44.570Z,6.47
2022-09-14T01:51:15.571Z,5.72
2022-09-14T01:53:46.178Z,5.30
2022-09-14T01:56:17.253Z,5.53
2022-09-14T01:58:49.226Z,8.13
2022-09-14T02:01:21.350Z,9.00
2022-09-14T02:03:51.662Z,6.30
2022-09-14T02:06:22.949Z,6.30
2022-09-14T02:08:51.163Z,8.48
2022-09-14T02:11:18.710Z,8.57
2022-09-14T02:13:48.022Z,3.90
2022-09-14T02:16:15.794Z,5.15
2022-09-14T02:18:44.330Z,8.63
2022-09-14T02:21:15.210Z,8.47
2022-09-14T02:23:43.122Z,7.40
2022-09-14T02:26:11.206Z,7.28
2022-09-14T02:28:38.809Z,5.63
2022-09-14T02:31:14.424Z,6.28
2022-09-14T02:33:53.813Z,3.85
2022-09-14T02:36:26.748Z,5.10
2022-09-14T02:39:00.367Z,8.75
2022-09-14T02:41:37.244Z,7.65
2022-09-14T02:44:11.474Z,10.20
2022-09-14T02:46:46.283Z,6.50
2022-09-14T02:49:19.907Z,6.80
2022-09-14T02:51:52.497Z,5.68
2022-09-14T02:54:22.435Z,10.55
2022-09-14T02:56:50.256Z,9.38
2022-09-14T02:59:18.615Z,8.38
2022-09-14T03:01:47.631Z,5.95
2022-09-14T03:04:15.410Z,7.22
2022-09-14T03:06:42.967Z,5.95
2022-09-14T03:09:10.547Z,9.40
2022-09-14T03:11:38.098Z,6.70
2022-09-14T03:14:05.647Z,3.97
2022-09-14T03:16:33.454Z,7.18
2022-09-14T03:19:02.391Z,7.20
2022-09-14T03:21:29.919Z,6.43
2022-09-14T03:23:57.901Z,5.90
2022-09-14T03:26:27.296Z,6.60
2022-09-14T03:28:56.880Z,9.67
2022-09-14T03:31:25.138Z,5.20
2022-09-14T03:33:55.190Z,12.38
2022-09-14T03:36:24.929Z,6.40
2022-09-14T03:38:54.908Z,8.88
2022-09-14T03:41:23.692Z,4.72
2022-09-14T03:43:51.329Z,7.50
2022-09-14T03:46:24.185Z,6.63
2022-09-14T03:48:52.482Z,3.90
2022-09-14T03:51:20.150Z,8.52
2022-09-14T03:53:49.137Z,7.17
2022-09-14T03:56:19.315Z,3.67
2022-09-14T03:58:48.044Z,15.10
2022-09-14T04:01:17.975Z,12.17
2022-09-14T04:03:45.787Z,5.60
2022-09-14T04:06:14.133Z,7.60
2022-09-14T04:08:42.805Z,9.95
2022-09-14T04:11:14.167Z,8.85
2022-09-14T04:13:41.957Z,5.82
2022-09-14T04:16:09.631Z,10.63
2022-09-14T04:18:37.436Z,15.27
2022-09-14T04:21:08.410Z,6.63
2022-09-14T04:23:51.277Z,4.30
2022-09-14T04:26:27.226Z,9.70
2022-09-14T04:28:55.012Z,6.10
2022-09-14T04:31:22.708Z,8.27
2022-09-14T04:33:51.207Z,6.30
2022-09-14T04:36:20.215Z,12.65
2022-09-14T04:38:48.012Z,5.80
2022-09-14T04:41:18.031Z,6.65
2022-09-14T04:43:47.774Z,9.88
2022-09-14T04:46:17.346Z,8.52
2022-09-14T04:48:45.294Z,9.68
2022-09-14T04:51:16.583Z,6.47
2022-09-14T04:53:44.794Z,8.38
2022-09-14T04:56:13.790Z,11.95
2022-09-14T04:58:48.249Z,10.30
2022-09-14T05:01:21.602Z,10.40
2022-09-14T05:03:51.666Z,11.10
2022-09-14T05:06:21.030Z,14.52
2022-09-14T05:08:49.196Z,8.73
2022-09-14T05:11:17.962Z,11.18
2022-09-14T05:13:49.688Z,9.18
2022-09-14T05:16:21.198Z,7.63
2022-09-14T05:18:49.817Z,14.52
2022-09-14T05:21:19.347Z,7.80
2022-09-14T05:23:47.547Z,10.57
2022-09-14T05:26:15.327Z,9.32
2022-09-14T05:28:42.931Z,8.93
2022-09-14T05:31:14.075Z,11.32
2022-09-14T05:33:43.075Z,7.10
2022-09-14T05:36:11.541Z,8.43
2022-09-14T05:38:40.020Z,7.30
2022-09-14T05:41:08.931Z,8.43
2022-09-14T05:43:36.686Z,14.98
2022-09-14T05:46:05.656Z,11.38
2022-09-14T05:48:33.774Z,10.15
2022-09-14T05:51:04.950Z,6.07
2022-09-14T05:53:32.600Z,7.18
2022-09-14T05:56:01.104Z,8.43
2022-09-14T05:58:28.712Z,9.77
2022-09-14T06:00:56.422Z,10.95
2022-09-14T06:03:24.263Z,5.38
2022-09-14T06:05:54.715Z,9.52
2022-09-14T06:08:24.684Z,10.40
2022-09-14T06:10:52.346Z,7.57
2022-09-14T06:13:20.005Z,9.18
2022-09-14T06:15:47.515Z,7.55
2022-09-14T06:18:15.096Z,10.07
2022-09-14T06:20:50.864Z,8.13
2022-09-14T06:23:18.583Z,12.48
2022-09-14T06:25:47.472Z,10.70
2022-09-14T06:28:15.068Z,7.72
2022-09-14T06:30:44.583Z,10.03
2022-09-14T06:33:12.145Z,9.15
2022-09-14T06:35:40.977Z,6.68
2022-09-14T06:38:08.689Z,9.73
2022-09-14T06:40:36.543Z,4.03
2022-09-14T06:43:05.528Z,7.63
2022-09-14T06:45:33.432Z,8.13
2022-09-14T06:48:01.219Z,11.35
2022-09-14T06:50:28.784Z,10.30
2022-09-14T06:52:57.021Z,6.43
2022-09-14T06:55:24.612Z,8.30
2022-09-14T06:57:52.187Z,6.18
2022-09-14T07:00:21.246Z,6.50
2022-09-14T07:02:51.369Z,8.05
2022-09-14T07:05:22.932Z,13.00
2022-09-14T07:07:52.331Z,10.85
2022-09-14T07:10:20.104Z,7.20
2022-09-14T07:12:48.123Z,8.85
2022-09-14T07:15:15.944Z,10.48
2022-09-14T07:17:47.086Z,10.73
2022-09-14T07:20:15.403Z,9.70
2022-09-14T07:22:43.640Z,5.10
2022-09-14T07:25:11.743Z,6.80
2022-09-14T07:27:39.593Z,13.07
2022-09-14T07:30:08.686Z,11.50
2022-09-14T07:32:36.231Z,7.72
2022-09-14T07:35:06.203Z,13.25
2022-09-14T07:37:33.850Z,12.52
2022-09-14T07:40:01.616Z,6.63
2022-09-14T07:42:29.172Z,5.68
2022-09-14T07:44:56.812Z,9.45
2022-09-14T07:47:24.363Z,7.27
2022-09-14T07:49:51.904Z,11.30
2022-09-14T07:52:21.060Z,12.68
2022-09-14T07:54:48.692Z,11.20
2022-09-14T07:57:17.020Z,4.82
2022-09-14T07:59:44.644Z,9.07
2022-09-14T08:02:12.525Z,8.63
2022-09-14T08:04:40.278Z,11.32
2022-09-14T08:07:09.007Z,11.07
2022-09-14T08:09:38.909Z,9.60
2022-09-14T08:12:06.575Z,10.35
2022-09-14T08:14:34.335Z,12.10
2022-09-14T08:17:02.181Z,6.35
2022-09-14T08:19:30.109Z,5.25
2022-09-14T08:21:57.823Z,5.63
2022-09-14T08:24:25.381Z,10.52
2022-09-14T08:26:54.877Z,11.48
2022-09-14T08:29:22.628Z,4.55
2022-09-14T08:31:52.082Z,8.32
2022-09-14T08:34:20.452Z,8.45
2022-09-14T08:36:48.780Z,4.75
2022-09-14T08:39:17.131Z,10.45
2022-09-14T08:41:51.638Z,6.45
2022-09-14T08:44:23.341Z,9.82
2022-09-14T08:46:54.345Z,5.80
2022-09-14T08:49:24.910Z,5.97
2022-09-14T08:51:52.632Z,6.38
2022-09-14T08:54:20.233Z,6.00
2022-09-14T08:56:51.222Z,5.90
2022-09-14T08:59:36.314Z,4.25
2022-09-14T09:02:18.145Z,12.18
2022-09-14T09:04:53.664Z,6.88
2022-09-14T09:07:28.106Z,7.03
2022-09-14T09:09:58.114Z,10.70
2022-09-14T09:12:31.510Z,7.78
2022-09-14T09:15:02.096Z,7.55
2022-09-14T09:17:32.473Z,6.55
2022-09-14T09:20:06.806Z,7.67
2022-09-14T09:22:39.756Z,7.93
2022-09-14T09:25:08.836Z,3.65
2022-09-14T09:27:36.423Z,8.88
2022-09-14T09:30:06.442Z,6.75
2022-09-14T09:32:35.685Z,5.05
2022-09-14T09:35:06.357Z,4.80
2022-09-14T09:37:39.468Z,7.70
2022-09-14T09:40:15.682Z,6.90
2022-09-14T09:43:07.934Z,8.27
2022-09-14T09:45:49.786Z,8.85
2022-09-14T09:48:18.836Z,9.73
2022-09-14T09:50:52.102Z,5.90
2022-09-14T09:53:22.292Z,9.25
2022-09-14T09:55:50.750Z,7.18
2022-09-14T09:58:28.452Z,6.70
2022-09-14T10:00:59.079Z,10.40
2022-09-14T10:03:34.022Z,6.57
2022-09-14T10:06:04.104Z,6.22
2022-09-14T10:08:35.023Z,8.18
2022-09-14T10:11:04.287Z,8.23
2022-09-14T10:13:37.704Z,4.80
2022-09-14T10:16:09.416Z,10.37
2022-09-14T10:18:37.135Z,9.23
2022-09-14T10:21:09.621Z,7.20
2022-09-14T10:23:38.726Z,8.07
2022-09-14T10:26:35.004Z,11.10
2022-09-14T10:29:28.885Z,5.38
2022-09-14T10:32:02.345Z,8.70
2022-09-14T10:34:30.443Z,6.40
2022-09-14T10:37:07.447Z,7.10
2022-09-14T10:39:40.712Z,7.35
2022-09-14T10:42:16.655Z,8.32
2022-09-14T10:44:57.499Z,4.15
2022-09-14T10:47:52.360Z,6.93
2022-09-14T10:50:28.546Z,7.35
2022-09-14T10:53:05.501Z,9.43
2022-09-14T10:55:39.963Z,9.57
2022-09-14T10:58:23.882Z,9.35
2022-09-14T11:01:00.265Z,9.03
2022-09-14T11:03:45.222Z,11.32
2022-09-14T11:06:24.871Z,11.98
2022-09-14T11:08:57.330Z,8.25
2022-09-14T11:11:33.948Z,9.50
2022-09-14T11:14:12.472Z,12.32
2022-09-14T11:16:52.693Z,9.77
2022-09-14T11:19:30.811Z,13.48
2022-09-14T11:22:03.707Z,11.18
2022-09-14T11:24:36.212Z,9.07
2022-09-14T11:27:06.537Z,9.10
2022-09-14T11:29:37.177Z,15.02
2022-09-14T11:32:20.837Z,14.52
2022-09-14T11:34:56.102Z,9.20
2022-09-14T11:37:31.516Z,12.20
2022-09-14T11:40:08.178Z,8.82
2022-09-14T11:42:38.883Z,9.10
2022-09-14T11:45:08.596Z,8.60
2022-09-14T11:47:47.148Z,8.02
2022-09-14T11:50:20.836Z,8.67
2022-09-14T11:52:50.142Z,6.45
2022-09-14T11:55:19.162Z,9.68
2022-09-14T11:57:47.951Z,8.33
2022-09-14T12:00:47.234Z,7.70
2022-09-14T12:03:17.904Z,11.35
2022-09-14T12:05:47.762Z,8.35
2022-09-14T12:08:38.433Z,8.07
2022-09-14T12:11:26.190Z,10.45
2022-09-14T12:14:15.924Z,7.43
2022-09-14T12:17:22.491Z,8.48
2022-09-14T12:19:55.975Z,10.65
2022-09-14T12:22:32.650Z,10.05
2022-09-14T12:25:03.646Z,5.43
2022-09-14T12:27:32.703Z,9.95
2022-09-14T12:30:00.508Z,7.88
2022-09-14T12:32:40.666Z,5.72
2022-09-14T12:35:37.634Z,5.88
2022-09-14T12:38:38.346Z,7.90
2022-09-14T12:41:51.221Z,7.32
2022-09-14T12:44:46.282Z,6.35
2022-09-14T12:47:50.945Z,8.35
2022-09-14T12:50:20.334Z,4.13
2022-09-14T12:52:59.909Z,7.45
2022-09-14T12:55:46.142Z,7.85
2022-09-14T12:58:27.118Z,11.25
2022-09-14T13:01:00.623Z,6.03
2022-09-14T13:03:46.054Z,8.65
2022-09-14T13:06:14.870Z,8.45
2022-09-14T13:08:46.298Z,10.67
2022-09-14T13:11:28.442Z,9.50
2022-09-14T13:13:59.241Z,8.07
2022-09-14T13:16:40.102Z,4.93
2022-09-14T13:19:20.607Z,8.68
2022-09-14T13:21:49.693Z,9.35
2022-09-14T13:24:32.649Z,5.22
2022-09-14T13:27:02.436Z,8.45
2022-09-14T13:29:33.088Z,6.80
2022-09-14T13:32:03.899Z,6.85
2022-09-14T13:34:34.552Z,7.40
2022-09-14T13:37:02.674Z,10.73
2022-09-14T13:39:31.693Z,5.07
2022-09-14T13:42:00.011Z,6.53
2022-09-14T13:44:34.044Z,6.30
2022-09-14T13:47:04.507Z,6.45
2022-09-14T13:49:32.275Z,4.63
2022-09-14T13:52:49.674Z,8.00
2022-09-14T13:55:23.198Z,4.80
2022-09-14T13:58:07.696Z,4.82
2022-09-14T14:00:48.508Z,8.73
2022-09-14T14:03:26.612Z,3.88
2022-09-14T14:05:54.376Z,6.55
2022-09-14T14:08:28.858Z,7.13
2022-09-14T14:10:56.726Z,13.77
2022-09-14T14:13:27.881Z,6.22
2022-09-14T14:16:15.686Z,6.20
2022-09-14T14:18:44.902Z,4.78
2022-09-14T14:21:16.506Z,10.52
2022-09-14T14:24:09.236Z,4.43
2022-09-14T14:26:32.231Z,5.95
2022-09-14T14:29:08.509Z,8.20
2022-09-14T14:31:37.757Z,7.40
2022-09-14T14:34:14.060Z,7.30
2022-09-14T14:36:41.848Z,6.82
2022-09-14T14:39:09.992Z,6.35
2022-09-14T14:41:38.743Z,4.38
2022-09-14T14:44:07.862Z,6.75
2022-09-14T14:46:36.868Z,9.02
2022-09-14T14:49:04.537Z,6.53
2022-09-14T14:51:32.340Z,5.97
2022-09-14T14:54:01.227Z,5.03
2022-09-14T14:56:29.610Z,11.43
2022-09-14T14:59:01.491Z,9.57
2022-09-14T15:01:30.968Z,7.93
2022-09-14T15:04:00.048Z,8.05
2022-09-14T15:06:28.403Z,6.55
2022-09-14T15:08:58.111Z,9.57
2022-09-14T15:11:25.796Z,7.82
2022-09-14T15:13:53.958Z,9.18
2022-09-14T15:16:21.723Z,5.63
2022-09-14T15:18:50.028Z,8.00
2022-09-14T15:21:19.552Z,8.15
2022-09-14T15:23:47.170Z,8.93
2022-09-14T15:26:17.038Z,6.70
2022-09-14T15:28:45.753Z,8.38
2022-09-14T15:31:14.235Z,9.80
2022-09-14T15:33:42.054Z,6.17
2022-09-14T15:36:09.832Z,6.65
2022-09-14T15:38:39.403Z,6.93
2022-09-14T15:41:07.069Z,5.95
2022-09-14T15:43:34.624Z,4.75
2022-09-14T15:46:03.627Z,9.13
2022-09-14T15:48:31.304Z,7.70
2022-09-14T15:51:00.632Z,5.88
2022-09-14T15:53:28.291Z,6.88
2022-09-14T15:55:59.704Z,6.40
2022-09-14T15:58:27.256Z,8.45
2022-09-14T16:00:55.126Z,5.33
2022-09-14T16:03:22.967Z,5.97
2022-09-14T16:05:51.317Z,5.87
2022-09-14T16:08:18.920Z,9.10
2022-09-14T16:10:46.447Z,6.28
2022-09-14T16:13:15.431Z,5.15
2022-09-14T16:15:42.986Z,5.93
2022-09-14T16:18:11.184Z,4.78
2022-09-14T16:20:38.729Z,6.05
2022-09-14T16:23:06.540Z,4.90
2022-09-14T16:25:40.528Z,5.57
2022-09-14T16:28:08.144Z,3.78
2022-09-14T16:30:37.027Z,4.82
2022-09-14T16:33:05.214Z,5.90
2022-09-14T16:35:32.928Z,6.60
2022-09-14T16:38:00.523Z,7.20
2022-09-14T16:40:28.779Z,9.20
2022-09-14T16:42:56.599Z,3.90
2022-09-14T16:45:24.977Z,6.88
2022-09-14T16:47:54.212Z,8.17
2022-09-14T16:50:21.746Z,7.38
2022-09-14T16:52:49.317Z,4.30
2022-09-14T16:55:16.858Z,8.82
2022-09-14T16:57:44.387Z,5.05
2022-09-14T17:00:12.946Z,5.15
2022-09-14T17:02:40.734Z,6.93
2022-09-14T17:05:10.478Z,9.35
2022-09-14T17:07:37.996Z,8.07
2022-09-14T17:10:06.615Z,6.97
2022-09-14T17:12:34.251Z,6.80
2022-09-14T17:15:01.894Z,7.28
2022-09-14T17:17:29.411Z,6.65
2022-09-14T17:19:56.994Z,6.07
2022-09-14T17:22:26.731Z,7.90
2022-09-14T17:24:54.455Z,12.55
2022-09-14T17:27:22.198Z,9.98
2022-09-14T17:29:50.826Z,4.80
2022-09-14T17:32:18.542Z,9.43
2022-09-14T17:34:46.794Z,6.20
2022-09-14T17:37:14.343Z,5.78
2022-09-14T17:39:43.524Z,6.78
2022-09-14T17:42:11.144Z,6.73
2022-09-14T17:44:40.847Z,9.35
2022-09-14T17:47:08.797Z,8.07
2022-09-14T17:49:36.477Z,8.00
2022-09-14T17:52:04.120Z,10.32
2022-09-14T17:54:32.202Z,6.70
2022-09-14T17:57:01.218Z,7.22
2022-09-14T17:59:28.996Z,14.32
2022-09-14T18:01:56.619Z,8.67
2022-09-14T18:04:24.530Z,7.78
2022-09-14T18:06:52.134Z,8.93
2022-09-14T18:09:21.568Z,7.75
2022-09-14T18:11:50.433Z,11.02
2022-09-14T18:14:19.678Z,10.83
2022-09-14T18:16:47.516Z,10.25
2022-09-14T18:19:15.842Z,11.73
2022-09-14T18:21:48.942Z,11.05
2022-09-14T18:24:19.639Z,9.33
2022-09-14T18:26:49.025Z,11.70
2022-09-14T18:29:23.016Z,9.80
2022-09-14T18:31:51.059Z,11.20
2022-09-14T18:34:18.990Z,11.23
2022-09-14T18:36:46.560Z,10.18
2022-09-14T18:39:14.401Z,13.07
2022-09-14T18:41:43.516Z,7.57
2022-09-14T18:44:11.169Z,17.30
2022-09-14T18:46:40.489Z,13.30
2022-09-14T18:49:08.114Z,12.80
2022-09-14T18:51:35.712Z,11.80
2022-09-14T18:54:06.763Z,12.90
2022-09-14T18:56:35.250Z,13.77
2022-09-14T18:59:03.989Z,12.38
2022-09-14T19:01:31.758Z,14.32
2022-09-14T19:04:02.567Z,13.90
2022-09-14T19:06:30.990Z,16.13
2022-09-14T19:08:58.507Z,20.37
2022-09-14T19:11:28.715Z,14.45
2022-09-14T19:13:57.515Z,17.60
2022-09-14T19:16:25.937Z,21.90
2022-09-14T19:18:54.002Z,18.48
2022-09-14T19:21:25.054Z,18.25
2022-09-14T19:24:03.137Z,20.08
2022-09-14T19:26:32.333Z,15.77
2022-09-14T19:29:00.834Z,22.05
2022-09-14T19:31:30.447Z,15.80
2022-09-14T19:33:58.486Z,16.88
2022-09-14T19:36:28.302Z,18.88
2022-09-14T19:38:57.213Z,18.15
2022-09-14T19:41:25.344Z,17.25
2022-09-14T19:43:52.971Z,19.70
2022-09-14T19:46:23.250Z,23.60
2022-09-14T19:48:51.350Z,23.17
2022-09-14T19:51:20.907Z,26.13
2022-09-14T19:53:51.554Z,28.48
2022-09-14T19:56:20.730Z,28.95
2022-09-14T19:58:50.325Z,24.35
2022-09-14T20:01:19.328Z,32.88
2022-09-14T20:03:48.717Z,24.63
2022-09-14T20:06:23.295Z,21.42
2022-09-14T20:08:54.849Z,23.95
2022-09-14T20:11:25.197Z,24.23
2022-09-14T20:13:55.154Z,28.17
2022-09-14T20:16:25.475Z,24.33
2022-09-14T20:18:53.385Z,20.75
2022-09-14T20:21:22.803Z,24.13
2022-09-14T20:24:16.292Z,24.27
2022-09-14T20:26:44.635Z,26.37
2022-09-14T20:29:15.688Z,31.52
2022-09-14T20:31:43.508Z,24.23
2022-09-14T20:34:11.280Z,31.03
2022-09-14T20:36:39.028Z,32.13
2022-09-14T20:39:07.965Z,24.50
2022-09-14T20:41:36.579Z,30.80
2022-09-14T20:44:04.720Z,31.52
2022-09-14T20:46:35.206Z,27.48
2022-09-14T20:49:04.070Z,30.40
2022-09-14T20:51:31.741Z,24.80
2022-09-14T20:53:59.474Z,28.13
2022-09-14T20:56:30.933Z,26.48
2022-09-14T20:59:00.091Z,25.73
2022-09-14T21:01:29.177Z,29.42
2022-09-14T21:03:57.160Z,29.83
2022-09-14T21:06:27.444Z,30.27
2022-09-14T21:08:55.583Z,25.63
2022-09-14T21:11:26.419Z,25.38
2022-09-14T21:13:56.599Z,26.02
2022-09-14T21:16:27.576Z,24.48
2022-09-14T21:18:57.532Z,24.27
2022-09-14T21:21:27.463Z,30.88
2022-09-14T21:23:55.780Z,29.13
2022-09-14T21:26:24.947Z,26.27
2022-09-14T21:28:57.370Z,28.20
2022-09-14T21:31:26.429Z,24.50
2022-09-14T21:33:55.549Z,25.10
2022-09-14T21:36:25.164Z,24.90
2022-09-14T21:38:53.918Z,26.35
2022-09-14T21:41:22.625Z,22.85
2022-09-14T21:43:50.662Z,24.80
2022-09-14T21:46:20.915Z,26.75
2022-09-14T21:48:48.501Z,25.73
2022-09-14T21:51:18.479Z,26.57
2022-09-14T21:53:47.132Z,26.77
2022-09-14T21:56:15.335Z,25.37
2022-09-14T21:58:43.004Z,28.67
2022-09-14T22:01:11.928Z,28.13
2022-09-14T22:03:41.062Z,23.80
2022-09-14T22:06:12.982Z,26.80
2022-09-14T22:08:41.943Z,29.10
2022-09-14T22:11:11.656Z,28.10
2022-09-14T22:13:40.511Z,27.33
2022-09-14T22:16:09.134Z,33.33
2022-09-14T22:18:37.650Z,32.05
2022-09-14T22:21:08.107Z,30.65
2022-09-14T22:23:36.584Z,33.60
2022-09-14T22:26:09.095Z,27.95
2022-09-14T22:28:37.029Z,32.70
2022-09-14T22:31:04.875Z,30.60
2022-09-14T22:33:33.966Z,34.38
2022-09-14T22:36:03.027Z,29.92
2022-09-14T22:38:34.006Z,34.85
2022-09-14T22:41:03.113Z,35.70
2022-09-14T22:43:31.565Z,34.47
2022-09-14T22:45:59.527Z,34.35
2022-09-14T22:48:27.510Z,33.75
2022-09-14T22:50:56.546Z,32.38
2022-09-14T22:53:25.685Z,29.52
2022-09-14T22:55:54.852Z,30.00
2022-09-14T22:58:24.057Z,28.48
2022-09-14T23:00:51.918Z,27.45
2022-09-14T23:03:20.158Z,25.90
2022-09-14T23:05:52.185Z,24.75
2022-09-14T23:08:21.727Z,24.23
2022-09-14T23:10:49.937Z,29.38
2022-09-14T23:13:19.126Z,25.00
2022-09-14T23:15:47.152Z,22.40
2022-09-14T23:18:15.388Z,22.65
2022-09-14T23:20:44.196Z,26.57
2022-09-14T23:23:12.441Z,25.02
2022-09-14T23:25:41.149Z,26.88
2022-09-14T23:28:11.125Z,23.27
2022-09-14T23:30:40.232Z,25.02
2022-09-14T23:33:08.129Z,24.63
2022-09-14T23:35:37.740Z,23.48
2022-09-14T23:38:05.693Z,22.35
2022-09-14T23:40:33.226Z,19.25
2022-09-14T23:43:00.896Z,25.85
2022-09-14T23:45:29.407Z,19.75
2022-09-14T23:47:58.358Z,23.07
2022-09-14T23:50:25.986Z,19.73
2022-09-14T23:52:57.323Z,21.63
2022-09-14T23:55:24.990Z,26.38
2022-09-14T23:57:52.545Z,24.10
